Time;durP1;ratioP1;P1;durP2;ratioP2;P2;SDS_P1;SDS_P2;PMS_P1;PMS_P2;Temp;Humidity;BMP_temperature;BMP_pressure;BME280_temperature;BME280_humidity;BME280_pressure;Samples;Min_cycle;Max_cycle;Signal;HPM_P1;HPM_P2
2024/01/25 00:00:03;;;;;;;14.10;7.30;;;;;;;6.01;88.88;97645.77;107139;1281;22814;-89
2024/01/25 00:02:31;;;;;;;12.50;6.30;;;;;;;6.02;88.52;97634.95;108173;1278;22585;-80
2024/01/25 00:04:59;;;;;;;12.20;6.60;;;;;;;6.01;88.71;97640.05;106990;1274;22867;-81
2024/01/25 00:07:28;;;;;;;10.10;6.10;;;;;;;6.00;89.36;97637.59;106837;1270;22545;-83
2024/01/25 00:09:57;;;;;;;12.30;6.30;;;;;;;6.02;88.96;97647.74;106767;1271;22557;-83
2024/01/25 00:12:26;;;;;;;17.00;8.10;;;;;;;6.02;89.04;97635.54;106938;1281;24249;-83
2024/01/25 00:14:54;;;;;;;12.30;6.50;;;;;;;5.98;89.20;97618.61;106736;1265;22548;-82
2024/01/25 00:17:21;;;;;;;11.70;6.40;;;;;;;5.96;89.36;97635.73;106716;1277;25509;-82
2024/01/25 00:19:49;;;;;;;14.30;6.80;;;;;;;5.94;89.81;97632.64;106726;1265;24074;-83
2024/01/25 00:22:17;;;;;;;13.20;6.90;;;;;;;5.91;90.11;97627.51;106847;1269;24209;-81
2024/01/25 00:24:45;;;;;;;13.40;8.10;;;;;;;5.88;89.96;97642.22;106757;1281;22671;-80
2024/01/25 00:27:13;;;;;;;14.10;9.90;;;;;;;5.86;90.00;97640.79;106854;1273;24232;-81
2024/01/25 00:29:41;;;;;;;14.60;7.10;;;;;;;5.85;90.21;97636.73;106872;1281;23310;-82
2024/01/25 00:32:09;;;;;;;12.10;6.40;;;;;;;5.86;90.23;97631.10;106865;1259;23828;-84
2024/01/25 00:34:38;;;;;;;14.10;7.30;;;;;;;5.90;89.95;97626.42;106942;1281;26233;-85
2024/01/25 00:37:06;;;;;;;16.60;8.20;;;;;;;5.90;89.82;97635.36;107123;1281;22718;-82
2024/01/25 00:39:35;;;;;;;14.70;7.40;;;;;;;5.87;89.74;97646.08;106865;1281;24239;-83
2024/01/25 00:42:08;;;;;;;16.30;7.00;;;;;;;5.82;90.30;97643.73;107200;1281;23308;-82
2024/01/25 00:44:37;;;;;;;12.20;6.90;;;;;;;5.83;90.49;97648.60;106975;1281;22751;-82
2024/01/25 00:47:05;;;;;;;12.80;6.70;;;;;;;5.88;89.75;97646.91;106840;1281;24503;-84
2024/01/25 00:49:33;;;;;;;11.30;6.70;;;;;;;5.89;89.05;97642.48;106799;1279;23962;-84
2024/01/25 00:52:22;;;;;;;14.60;7.50;;;;;;;5.90;89.10;97641.13;106816;1281;25345;-83
2024/01/25 00:54:52;;;;;;;12.40;6.70;;;;;;;5.90;89.25;97637.02;106700;1276;22568;-80
2024/01/25 00:57:20;;;;;;;9.50;5.80;;;;;;;5.93;89.21;97648.30;106795;1275;22539;-81
2024/01/25 00:59:49;;;;;;;17.10;8.70;;;;;;;5.94;88.90;97653.18;106832;1274;22552;-80
2024/01/25 01:02:21;;;;;;;11.30;7.00;;;;;;;5.95;88.70;97643.55;106855;1273;22661;-83
2024/01/25 01:04:49;;;;;;;13.40;6.60;;;;;;;5.97;87.77;97678.42;106863;1281;22553;-81
2024/01/25 01:07:18;;;;;;;15.50;7.90;;;;;;;6.02;86.77;97661.38;106835;1275;24247;-80
2024/01/25 01:09:46;;;;;;;11.00;6.10;;;;;;;6.05;86.74;97649.70;106830;1274;22951;-82
2024/01/25 01:12:14;;;;;;;15.00;7.50;;;;;;;6.09;86.16;97662.16;106858;1271;25351;-82
2024/01/25 01:14:42;;;;;;;10.30;6.10;;;;;;;6.12;85.50;97655.08;106744;1281;24175;-80
2024/01/25 01:17:10;;;;;;;9.30;5.80;;;;;;;6.13;85.38;97661.71;106740;1275;25476;-80
2024/01/25 01:19:38;;;;;;;11.50;6.20;;;;;;;6.12;84.85;97646.52;106876;1273;25256;-80
2024/01/25 01:22:07;;;;;;;14.90;6.70;;;;;;;6.09;85.37;97635.46;106751;1281;22719;-81
2024/01/25 01:24:35;;;;;;;15.10;7.20;;;;;;;6.09;85.87;97641.55;106965;1267;23256;-80
2024/01/25 01:27:03;;;;;;;16.00;8.20;;;;;;;6.03;86.23;97625.91;107575;1281;22579;-83
2024/01/25 01:29:31;;;;;;;14.70;7.30;;;;;;;5.97;86.19;97622.30;107998;1270;25301;-83
2024/01/25 01:31:59;;;;;;;14.30;6.80;;;;;;;5.91;86.06;97628.37;106899;1281;22570;-84
2024/01/25 01:34:27;;;;;;;13.30;6.60;;;;;;;5.85;86.67;97622.18;106872;1265;22732;-86
2024/01/25 01:36:55;;;;;;;16.00;7.40;;;;;;;5.87;86.97;97621.69;106848;1270;24198;-85
2024/01/25 01:39:23;;;;;;;11.70;6.80;;;;;;;5.86;86.74;97633.89;106895;1281;23405;-85
2024/01/25 01:41:51;;;;;;;14.70;7.90;;;;;;;5.82;86.55;97633.41;106862;1281;24387;-85
2024/01/25 01:44:19;;;;;;;13.40;5.90;;;;;;;5.81;86.42;97635.77;106873;1275;23932;-84
2024/01/25 01:46:47;;;;;;;11.60;6.00;;;;;;;5.86;86.02;97646.55;106857;1281;23708;-84
2024/01/25 01:49:16;;;;;;;10.50;6.10;;;;;;;5.93;85.39;97634.08;106840;1273;22644;-85
2024/01/25 01:51:45;;;;;;;11.30;6.00;;;;;;;5.92;85.36;97649.22;107160;1275;22677;-84
2024/01/25 01:54:13;;;;;;;13.70;6.90;;;;;;;5.90;85.19;97638.09;107318;1281;22679;-85
2024/01/25 01:56:41;;;;;;;10.40;6.10;;;;;;;5.90;85.48;97628.98;108840;1266;26622;-84
2024/01/25 01:59:11;;;;;;;14.20;8.80;;;;;;;5.93;85.63;97624.23;108051;1268;24158;-89
2024/01/25 02:01:39;;;;;;;12.40;5.50;;;;;;;5.92;85.67;97631.94;106960;1273;25368;-88
2024/01/25 02:04:08;;;;;;;13.50;5.90;;;;;;;5.90;84.99;97644.83;106816;1281;23396;-88
2024/01/25 02:06:36;;;;;;;12.80;6.60;;;;;;;5.87;84.81;97611.46;106839;1266;22764;-89
2024/01/25 02:09:05;;;;;;;10.10;5.20;;;;;;;5.89;84.62;97633.33;106977;1258;24754;-85
2024/01/25 02:11:32;;;;;;;12.50;6.10;;;;;;;5.88;85.01;97610.17;106777;1278;25423;-90
2024/01/25 02:14:01;;;;;;;13.00;6.40;;;;;;;5.88;85.03;97612.69;106832;1281;22533;-88
2024/01/25 02:16:29;;;;;;;17.30;8.20;;;;;;;5.85;84.89;97618.17;106734;1281;22698;-86
2024/01/25 02:18:57;;;;;;;15.30;7.30;;;;;;;5.82;84.73;97618.60;106816;1281;25344;-86
2024/01/25 02:21:26;;;;;;;11.30;6.10;;;;;;;5.79;85.01;97608.73;106818;1273;24056;-85
2024/01/25 02:23:54;;;;;;;12.70;5.90;;;;;;;5.78;84.95;97606.05;106830;1260;23274;-85
2024/01/25 02:26:23;;;;;;;9.20;4.90;;;;;;;5.82;84.35;97610.05;106791;1265;24242;-84
2024/01/25 02:28:51;;;;;;;10.10;5.50;;;;;;;5.81;84.03;97627.00;106866;1265;25397;-86
2024/01/25 02:31:22;;;;;;;19.40;6.50;;;;;;;5.78;84.03;97608.52;106726;1277;25230;-85
2024/01/25 02:33:50;;;;;;;11.80;5.90;;;;;;;5.76;84.29;97618.52;106785;1281;23297;-85
2024/01/25 02:36:18;;;;;;;12.70;5.70;;;;;;;5.77;84.55;97621.30;106899;1273;23975;-85
2024/01/25 02:38:46;;;;;;;12.10;5.80;;;;;;;5.78;84.29;97611.94;106808;1281;24376;-85
2024/01/25 02:41:14;;;;;;;11.40;5.50;;;;;;;5.77;84.17;97620.65;106922;1281;22590;-82
2024/01/25 02:43:42;;;;;;;14.20;6.20;;;;;;;5.78;83.78;97623.00;106877;1275;22539;-83
2024/01/25 02:46:10;;;;;;;15.00;6.30;;;;;;;5.76;83.57;97619.75;106892;1265;22617;-83
2024/01/25 02:48:38;;;;;;;10.30;6.00;;;;;;;5.76;83.36;97619.74;107062;1259;25372;-84
2024/01/25 02:51:06;;;;;;;14.90;6.30;;;;;;;5.75;83.01;97619.16;106850;1266;22618;-84
2024/01/25 02:53:34;;;;;;;13.10;6.20;;;;;;;5.77;83.09;97622.80;106735;1278;25342;-84
2024/01/25 02:56:02;;;;;;;13.50;5.90;;;;;;;5.78;82.64;97614.77;106841;1270;22544;-83
2024/01/25 02:58:30;;;;;;;15.30;6.30;;;;;;;5.79;82.79;97616.20;106772;1281;25373;-84
2024/01/25 03:00:59;;;;;;;12.40;5.80;;;;;;;5.77;82.34;97618.14;107673;1281;22556;-83
2024/01/25 03:03:27;;;;;;;10.40;5.40;;;;;;;5.76;82.45;97627.61;108746;1278;22548;-84
2024/01/25 03:05:55;;;;;;;11.90;5.70;;;;;;;5.75;82.45;97629.55;106884;1281;22555;-85
2024/01/25 03:08:23;;;;;;;10.60;5.10;;;;;;;5.76;82.38;97627.88;106655;1282;22549;-82
2024/01/25 03:10:51;;;;;;;10.70;5.40;;;;;;;5.77;81.92;97628.95;106893;1281;22759;-85
2024/01/25 03:13:19;;;;;;;13.30;6.10;;;;;;;5.79;81.26;97630.17;106796;1281;22555;-85
2024/01/25 03:15:47;;;;;;;12.60;5.80;;;;;;;5.76;81.24;97630.06;106801;1281;24266;-85
2024/01/25 03:18:15;;;;;;;12.50;5.60;;;;;;;5.76;80.80;97639.80;106904;1275;24321;-83
2024/01/25 03:20:44;;;;;;;14.10;5.90;;;;;;;5.75;80.56;97623.65;106820;1281;25348;-83
2024/01/25 03:23:12;;;;;;;12.20;6.20;;;;;;;5.75;79.97;97635.20;106657;1271;24432;-84
2024/01/25 03:25:40;;;;;;;13.60;6.40;;;;;;;5.76;79.59;97632.70;106723;1281;22670;-85
2024/01/25 03:28:09;;;;;;;12.90;5.90;;;;;;;5.75;79.61;97620.61;106764;1274;25359;-84
2024/01/25 03:30:37;;;;;;;10.40;5.30;;;;;;;5.73;79.61;97625.44;106814;1281;25415;-84
2024/01/25 03:33:05;;;;;;;12.30;5.70;;;;;;;5.75;79.26;97643.76;106734;1266;22571;-86
2024/01/25 03:35:33;;;;;;;13.20;5.90;;;;;;;5.77;78.64;97625.80;106749;1278;25369;-83
2024/01/25 03:38:01;;;;;;;12.90;5.60;;;;;;;5.77;78.44;97638.63;106778;1265;22970;-85
2024/01/25 03:40:29;;;;;;;12.90;6.10;;;;;;;5.76;78.09;97642.01;106843;1270;22550;-83
2024/01/25 03:42:57;;;;;;;10.60;4.90;;;;;;;5.73;78.42;97641.41;106770;1273;22544;-84
2024/01/25 03:45:45;;;;;;;14.20;6.40;;;;;;;5.69;78.20;97652.28;106765;1281;22666;-83
2024/01/25 03:48:13;;;;;;;15.60;5.40;;;;;;;5.68;78.02;97650.69;107493;1278;23214;-83
2024/01/25 03:50:41;;;;;;;12.70;6.10;;;;;;;5.69;77.65;97633.52;108530;1260;22680;-84
2024/01/25 03:53:09;;;;;;;14.10;5.50;;;;;;;5.70;77.43;97635.55;106941;1281;25045;-84
2024/01/25 03:55:38;;;;;;;15.00;6.90;;;;;;;5.73;76.92;97643.52;106716;1282;23899;-84
2024/01/25 03:58:06;;;;;;;14.00;5.90;;;;;;;5.74;76.54;97634.58;106780;1274;22579;-84
2024/01/25 04:00:34;;;;;;;15.70;5.90;;;;;;;5.74;76.65;97643.34;106819;1281;22619;-84
2024/01/25 04:03:03;;;;;;;13.40;6.30;;;;;;;5.74;76.38;97642.23;107199;1281;25601;-85
2024/01/25 04:05:31;;;;;;;11.90;5.10;;;;;;;5.72;76.39;97643.08;107374;1278;24456;-84
2024/01/25 04:07:59;;;;;;;13.60;5.50;;;;;;;5.73;76.20;97638.38;106952;1281;22657;-85
2024/01/25 04:10:27;;;;;;;15.00;6.10;;;;;;;5.72;76.00;97642.55;106808;1281;23984;-85
2024/01/25 04:12:55;;;;;;;13.30;5.50;;;;;;;5.70;76.01;97640.09;106777;1281;22568;-85
2024/01/25 04:15:23;;;;;;;14.00;5.40;;;;;;;5.71;75.48;97654.48;107015;1281;24331;-85
2024/01/25 04:17:53;;;;;;;11.70;5.90;;;;;;;5.74;74.82;97647.73;106816;1280;25287;-85
2024/01/25 04:20:23;;;;;;;14.70;6.20;;;;;;;5.73;75.49;97648.80;106748;1281;22549;-86
2024/01/25 04:22:51;;;;;;;15.50;6.80;;;;;;;5.71;75.39;97651.00;106786;1281;23354;-85
2024/01/25 04:25:20;;;;;;;13.00;6.40;;;;;;;5.69;75.37;97644.86;106794;1258;24203;-86
2024/01/25 04:27:48;;;;;;;12.60;6.00;;;;;;;5.71;74.81;97677.52;106749;1269;22538;-87
2024/01/25 04:30:18;;;;;;;12.60;5.60;;;;;;;5.75;74.37;97660.01;106678;1270;24415;-87
2024/01/25 04:32:46;;;;;;;16.10;5.70;;;;;;;5.78;74.65;97650.98;106767;1281;22553;-86
2024/01/25 04:35:14;;;;;;;10.50;5.00;;;;;;;5.77;74.67;97663.48;108546;1278;22494;-85
2024/01/25 04:37:46;;;;;;;12.40;5.30;;;;;;;5.76;74.61;97663.23;107561;1274;25526;-85
2024/01/25 04:40:14;;;;;;;15.80;6.30;;;;;;;5.78;74.95;97649.58;106845;1281;22529;-86
2024/01/25 04:42:42;;;;;;;16.10;5.80;;;;;;;5.77;74.96;97653.33;106737;1273;25516;-86
2024/01/25 04:45:10;;;;;;;13.90;5.90;;;;;;;5.73;75.36;97649.06;106781;1281;25456;-84
2024/01/25 04:47:39;;;;;;;14.90;6.00;;;;;;;5.74;75.32;97645.42;106809;1266;26539;-87
2024/01/25 04:50:08;;;;;;;13.50;5.60;;;;;;;5.71;75.56;97639.92;106708;1280;26578;-86
2024/01/25 04:52:36;;;;;;;13.30;6.60;;;;;;;5.69;75.93;97646.35;106805;1266;25413;-86
2024/01/25 04:55:04;;;;;;;14.00;6.00;;;;;;;5.65;76.27;97654.06;106745;1281;22706;-87
2024/01/25 04:57:32;;;;;;;12.00;5.50;;;;;;;5.59;77.87;97650.98;106869;1275;22530;-87
2024/01/25 05:00:00;;;;;;;12.60;5.30;;;;;;;5.54;79.25;97656.08;106778;1273;24432;-87
2024/01/25 05:02:31;;;;;;;11.90;5.80;;;;;;;5.45;79.58;97651.55;106840;1281;23125;-88
2024/01/25 05:04:58;;;;;;;12.20;6.10;;;;;;;5.37;80.16;97640.84;106978;1281;24353;-87
2024/01/25 05:07:27;;;;;;;14.00;6.50;;;;;;;5.32;81.01;97643.69;108690;1281;22946;-87
2024/01/25 05:09:58;;;;;;;11.30;5.80;;;;;;;5.25;81.38;97630.34;106976;1278;24393;-88
2024/01/25 05:12:26;;;;;;;11.10;5.50;;;;;;;5.21;82.32;97643.17;106857;1282;22589;-90
2024/01/25 05:14:54;;;;;;;12.60;5.40;;;;;;;5.25;82.34;97647.39;106838;1281;25316;-87
2024/01/25 05:17:22;;;;;;;15.30;6.20;;;;;;;5.27;82.15;97641.17;106857;1278;24318;-85
2024/01/25 05:19:50;;;;;;;15.10;8.50;;;;;;;5.22;82.13;97654.91;106814;1281;23402;-86
2024/01/25 05:22:20;;;;;;;11.70;5.80;;;;;;;5.18;82.16;97650.86;106879;1260;22655;-86
2024/01/25 05:24:49;;;;;;;10.80;5.70;;;;;;;5.20;82.56;97652.68;106868;1270;22682;-86
2024/01/25 05:27:17;;;;;;;11.50;6.80;;;;;;;5.20;82.91;97653.63;106878;1281;24219;-86
2024/01/25 05:29:45;;;;;;;9.80;5.40;;;;;;;5.21;82.83;97648.34;106764;1281;22652;-87
2024/01/25 05:32:13;;;;;;;13.00;7.20;;;;;;;5.20;82.84;97649.00;106832;1281;24347;-85
2024/01/25 05:34:40;;;;;;;12.80;5.50;;;;;;;5.18;82.81;97647.12;106848;1269;24160;-85
2024/01/25 05:37:10;;;;;;;13.10;5.60;;;;;;;5.18;83.22;97654.98;106723;1269;24260;-87
2024/01/25 05:39:38;;;;;;;12.10;5.90;;;;;;;5.18;83.75;97642.10;106897;1281;22550;-89
2024/01/25 05:42:06;;;;;;;13.00;6.00;;;;;;;5.17;83.89;97635.21;109545;1281;22555;-87
2024/01/25 05:44:34;;;;;;;12.20;5.60;;;;;;;5.13;83.91;97637.14;108041;1280;25889;-86
2024/01/25 05:47:02;;;;;;;11.80;5.70;;;;;;;5.12;84.19;97642.06;107161;1282;25432;-88
2024/01/25 05:49:30;;;;;;;12.60;6.60;;;;;;;5.08;84.73;97641.26;106764;1281;22571;-88
2024/01/25 05:51:58;;;;;;;12.60;6.90;;;;;;;5.05;85.66;97625.61;106884;1281;22546;-88
2024/01/25 05:54:27;;;;;;;13.30;7.30;;;;;;;5.02;85.77;97623.32;106735;1280;22552;-88
2024/01/25 05:56:55;;;;;;;15.40;7.30;;;;;;;4.97;85.80;97626.73;106669;1282;24259;-88
2024/01/25 05:59:23;;;;;;;13.80;7.50;;;;;;;4.94;86.11;97616.77;106877;1278;22548;-89
2024/01/25 06:01:51;;;;;;;16.10;6.90;;;;;;;4.91;86.00;97617.20;107008;1281;24141;-87
2024/01/25 06:04:19;;;;;;;13.30;6.30;;;;;;;4.88;86.47;97614.26;106929;1281;24222;-88
2024/01/25 06:06:47;;;;;;;21.40;9.60;;;;;;;4.94;87.07;97619.95;106976;1281;24294;-87
2024/01/25 06:09:15;;;;;;;19.20;8.40;;;;;;;4.94;86.98;97628.98;109377;1281;22777;-86
2024/01/25 06:11:50;;;;;;;16.90;8.10;;;;;;;4.95;86.73;97629.36;107200;1281;23288;-87
2024/01/25 06:14:18;;;;;;;13.20;7.40;;;;;;;4.96;86.75;97612.55;106768;1281;24256;-88
2024/01/25 06:16:47;;;;;;;13.70;8.10;;;;;;;4.96;86.78;97614.73;106720;1275;24233;-89
2024/01/25 06:19:15;;;;;;;13.90;7.50;;;;;;;4.97;87.17;97613.13;106551;1271;22577;-88
2024/01/25 06:21:44;;;;;;;21.80;9.70;;;;;;;4.98;87.10;97630.02;106822;1281;23009;-87
2024/01/25 06:24:12;;;;;;;14.30;6.70;;;;;;;4.96;87.59;97633.73;106654;1274;24266;-89
2024/01/25 06:26:40;;;;;;;17.70;8.90;;;;;;;4.87;88.14;97633.86;106665;1281;22543;-89
2024/01/25 06:29:08;;;;;;;13.70;8.00;;;;;;;4.84;88.75;97633.98;106683;1281;24378;-88
2024/01/25 06:31:43;;;;;;;16.80;9.20;;;;;;;4.81;89.42;97633.27;106740;1278;22602;-87
2024/01/25 06:34:12;;;;;;;17.10;10.20;;;;;;;4.77;89.72;97626.55;106697;1275;24663;-87
2024/01/25 06:36:40;;;;;;;14.40;8.10;;;;;;;4.70;90.56;97631.88;106820;1281;23199;-85
2024/01/25 06:39:08;;;;;;;14.20;7.60;;;;;;;4.69;91.08;97635.30;106711;1276;22564;-86
2024/01/25 06:41:36;;;;;;;15.60;8.10;;;;;;;4.68;91.21;97630.94;106972;1281;22488;-85
2024/01/25 06:44:04;;;;;;;16.40;8.20;;;;;;;4.69;91.39;97636.90;107590;1281;25281;-85
2024/01/25 06:46:32;;;;;;;14.30;7.60;;;;;;;4.69;91.64;97643.64;106603;1282;22699;-86
2024/01/25 06:49:00;;;;;;;12.40;7.00;;;;;;;4.69;92.10;97649.17;106793;1275;24221;-86
2024/01/25 06:51:34;;;;;;;15.00;7.80;;;;;;;4.68;92.75;97670.27;106810;1282;22555;-87
2024/01/25 06:54:02;;;;;;;14.40;7.60;;;;;;;4.67;92.69;97657.83;107134;1278;25465;-87
2024/01/25 06:56:31;;;;;;;14.00;7.30;;;;;;;4.61;92.75;97652.75;106783;1281;24167;-86
2024/01/25 06:58:59;;;;;;;14.40;7.50;;;;;;;4.56;93.44;97649.48;106822;1275;22569;-86
2024/01/25 07:01:27;;;;;;;15.00;8.10;;;;;;;4.56;93.57;97651.85;106752;1278;22632;-82
2024/01/25 07:03:56;;;;;;;15.80;7.30;;;;;;;4.54;93.86;97653.13;106812;1275;26683;-84
2024/01/25 07:06:26;;;;;;;14.00;7.10;;;;;;;4.51;93.88;97650.88;106659;1280;25167;-83
2024/01/25 07:08:54;;;;;;;14.00;7.80;;;;;;;4.50;94.66;97652.48;106806;1278;25624;-84
2024/01/25 07:11:23;;;;;;;12.50;6.70;;;;;;;4.47;94.84;97642.71;106781;1275;22781;-83
2024/01/25 07:13:51;;;;;;;14.20;6.90;;;;;;;4.48;95.54;97650.45;106789;1275;24052;-83
2024/01/25 07:16:20;;;;;;;13.10;7.40;;;;;;;4.42;95.80;97661.75;106834;1278;22653;-84
2024/01/25 07:18:50;;;;;;;18.20;9.60;;;;;;;4.38;96.09;97667.55;106799;1275;24080;-84
2024/01/25 07:21:19;;;;;;;15.30;7.90;;;;;;;4.32;96.59;97654.63;106870;1281;25266;-84
2024/01/25 07:23:47;;;;;;;13.90;8.60;;;;;;;4.30;97.09;97652.70;106707;1275;22607;-85
2024/01/25 07:26:18;;;;;;;14.10;7.00;;;;;;;4.28;97.61;97669.45;106814;1275;22607;-85
2024/01/25 07:28:46;;;;;;;14.90;8.10;;;;;;;4.26;97.83;97665.92;106847;1281;23913;-85
2024/01/25 07:31:14;;;;;;;14.20;8.60;;;;;;;4.24;97.76;97670.68;106918;1273;22697;-84
2024/01/25 07:33:42;;;;;;;14.20;7.90;;;;;;;4.24;98.03;97669.77;106921;1258;23938;-85
2024/01/25 07:36:11;;;;;;;14.90;8.20;;;;;;;4.27;98.62;97674.99;107099;1274;22671;-83
2024/01/25 07:38:40;;;;;;;14.40;8.90;;;;;;;4.28;98.77;97677.61;106778;1281;24071;-84
2024/01/25 07:41:08;;;;;;;13.40;8.00;;;;;;;4.28;98.95;97691.02;106861;1273;24162;-84
2024/01/25 07:43:36;;;;;;;16.20;7.80;;;;;;;4.26;99.37;97688.39;107558;1281;22599;-84
2024/01/25 07:46:04;;;;;;;13.70;7.90;;;;;;;4.25;99.95;97700.86;107161;1282;24261;-86
2024/01/25 07:48:33;;;;;;;14.40;7.90;;;;;;;4.25;99.93;97703.75;106849;1266;22605;-86
2024/01/25 07:51:02;;;;;;;15.60;9.20;;;;;;;4.25;100.00;97702.30;106749;1273;24063;-86
2024/01/25 07:53:31;;;;;;;11.00;6.40;;;;;;;4.24;100.00;97696.60;106761;1276;22545;-87
2024/01/25 07:55:59;;;;;;;13.20;6.10;;;;;;;4.19;100.00;97708.64;106815;1275;22548;-85
2024/01/25 07:58:30;;;;;;;11.60;6.80;;;;;;;4.07;100.00;97697.86;106754;1281;22542;-83
2024/01/25 08:00:58;;;;;;;10.70;6.50;;;;;;;4.02;100.00;97703.19;106878;1275;24297;-84
2024/01/25 08:03:26;;;;;;;11.90;7.20;;;;;;;3.99;100.00;97702.64;106760;1281;24197;-88
2024/01/25 08:05:54;;;;;;;13.00;7.00;;;;;;;3.98;100.00;97700.55;106608;1278;22545;-83
2024/01/25 08:08:22;;;;;;;14.00;8.10;;;;;;;3.96;100.00;97693.52;106731;1281;22635;-85
2024/01/25 08:10:50;;;;;;;15.70;7.10;;;;;;;3.93;100.00;97693.87;106724;1273;24239;-84
2024/01/25 08:13:19;;;;;;;14.50;7.90;;;;;;;3.91;100.00;97698.34;107036;1272;24372;-84
2024/01/25 08:15:48;;;;;;;15.60;8.10;;;;;;;3.91;100.00;97707.35;106935;1266;25369;-82
2024/01/25 08:18:19;;;;;;;18.10;8.40;;;;;;;3.90;100.00;97707.56;106936;1272;23097;-84
2024/01/25 08:20:49;;;;;;;12.50;7.80;;;;;;;3.92;100.00;97708.04;106888;1281;22533;-83
2024/01/25 08:23:18;;;;;;;14.50;8.80;;;;;;;3.93;100.00;97700.80;106882;1278;24250;-84
2024/01/25 08:25:46;;;;;;;19.40;8.50;;;;;;;3.95;100.00;97710.94;106902;1281;22562;-83
2024/01/25 08:28:14;;;;;;;13.90;7.70;;;;;;;3.97;100.00;97710.00;107645;1271;22653;-82
2024/01/25 08:30:42;;;;;;;14.00;6.90;;;;;;;4.01;100.00;97718.44;106933;1281;22585;-82
2024/01/25 08:33:10;;;;;;;14.90;7.50;;;;;;;4.04;100.00;97718.77;106854;1266;22540;-83
2024/01/25 08:35:42;;;;;;;15.30;7.20;;;;;;;4.06;100.00;97707.58;106848;1275;22684;-84
2024/01/25 08:38:10;;;;;;;14.70;7.90;;;;;;;4.07;100.00;97706.88;106836;1281;22663;-83
2024/01/25 08:40:38;;;;;;;11.20;6.90;;;;;;;4.09;100.00;97711.27;106875;1278;22550;-83
2024/01/25 08:43:07;;;;;;;16.40;8.10;;;;;;;4.14;100.00;97710.75;106966;1272;22702;-84
2024/01/25 08:45:35;;;;;;;17.50;7.40;;;;;;;4.18;100.00;97718.17;106889;1281;22604;-83
2024/01/25 08:48:03;;;;;;;14.80;7.10;;;;;;;4.21;100.00;97701.13;106827;1278;22549;-83
2024/01/25 08:50:33;;;;;;;14.90;8.00;;;;;;;4.24;100.00;97712.17;106814;1271;22552;-84
2024/01/25 08:53:02;;;;;;;19.50;9.20;;;;;;;4.31;100.00;97706.05;106843;1281;22530;-83
2024/01/25 08:55:30;;;;;;;25.80;13.60;;;;;;;4.34;100.00;97702.45;106823;1281;23340;-83
2024/01/25 08:57:58;;;;;;;14.90;8.80;;;;;;;4.37;100.00;97710.77;106892;1268;22543;-82
2024/01/25 09:00:26;;;;;;;15.20;8.40;;;;;;;4.38;100.00;97702.70;106915;1272;24392;-83
2024/01/25 09:02:54;;;;;;;16.80;8.50;;;;;;;4.43;100.00;97700.86;106930;1269;22559;-83
2024/01/25 09:05:22;;;;;;;21.10;9.70;;;;;;;4.43;100.00;97707.79;106842;1281;25320;-82
2024/01/25 09:07:50;;;;;;;20.50;10.40;;;;;;;4.47;100.00;97716.61;107004;1275;22557;-83
2024/01/25 09:10:19;;;;;;;18.00;8.40;;;;;;;4.52;99.86;97714.70;107049;1279;22553;-84
2024/01/25 09:12:48;;;;;;;17.90;8.60;;;;;;;4.61;99.48;97722.25;107155;1278;23147;-85
2024/01/25 09:15:16;;;;;;;15.70;6.80;;;;;;;4.69;98.19;97724.61;106968;1276;22586;-85
2024/01/25 09:17:45;;;;;;;15.20;7.60;;;;;;;4.74;96.46;97741.05;108227;1281;22996;-83
2024/01/25 09:20:13;;;;;;;16.10;7.70;;;;;;;4.79;96.07;97735.35;108317;1281;22655;-85
2024/01/25 09:22:42;;;;;;;18.70;7.50;;;;;;;4.85;95.12;97736.85;106906;1281;22536;-84
2024/01/25 09:25:10;;;;;;;18.60;7.70;;;;;;;4.89;94.29;97735.63;106861;1276;25409;-84
2024/01/25 09:27:38;;;;;;;16.10;8.40;;;;;;;4.90;93.62;97746.64;107368;1281;22532;-84
2024/01/25 09:30:08;;;;;;;14.20;6.70;;;;;;;4.89;93.28;97741.50;106978;1266;22754;-84
2024/01/25 09:32:36;;;;;;;15.30;7.90;;;;;;;4.89;93.90;97752.34;106947;1281;22691;-82
2024/01/25 09:35:05;;;;;;;19.50;7.80;;;;;;;4.81;94.14;97754.25;106878;1270;23843;-82
2024/01/25 09:37:33;;;;;;;16.00;7.60;;;;;;;4.76;94.63;97753.60;106799;1281;22554;-84
2024/01/25 09:40:03;;;;;;;17.60;8.80;;;;;;;4.70;95.29;97760.80;106826;1276;22551;-82
2024/01/25 09:42:32;;;;;;;17.40;8.80;;;;;;;4.65;96.14;97753.52;106812;1267;24344;-82
2024/01/25 09:45:00;;;;;;;19.20;8.50;;;;;;;4.62;96.36;97773.42;106869;1272;22576;-83
2024/01/25 09:47:28;;;;;;;18.30;9.00;;;;;;;4.57;96.89;97781.47;106861;1281;23900;-83
2024/01/25 09:49:58;;;;;;;19.00;8.30;;;;;;;4.57;96.94;97774.38;106966;1279;25514;-82
2024/01/25 09:52:28;;;;;;;17.00;8.60;;;;;;;4.55;97.36;97756.06;106958;1272;23931;-82
2024/01/25 09:54:57;;;;;;;22.00;11.00;;;;;;;4.55;97.75;97768.83;106735;1279;267913;-82
2024/01/25 09:57:30;;;;;;;18.30;8.80;;;;;;;4.47;98.04;97763.14;106966;1281;25539;-83
2024/01/25 09:59:58;;;;;;;16.60;7.70;;;;;;;4.44;98.65;97761.05;106901;1278;24501;-82
2024/01/25 10:02:26;;;;;;;18.40;8.60;;;;;;;4.43;99.05;97764.03;106909;1278;25351;-81
2024/01/25 10:04:54;;;;;;;21.10;8.40;;;;;;;4.39;99.29;97785.32;106975;1278;25232;-81
2024/01/25 10:07:45;;;;;;;17.80;7.70;;;;;;;4.40;99.46;97780.35;107079;1281;22643;-82
2024/01/25 10:10:14;;;;;;;17.20;8.20;;;;;;;4.34;99.77;97770.36;106828;1269;25612;-81
2024/01/25 10:12:43;;;;;;;17.70;8.00;;;;;;;4.33;99.94;97769.44;106926;1278;24200;-82
2024/01/25 10:15:11;;;;;;;18.40;9.40;;;;;;;4.31;99.99;97758.82;106917;1278;22555;-81
2024/01/25 10:17:40;;;;;;;24.50;9.00;;;;;;;4.31;99.95;97761.11;106908;1278;22648;-83
2024/01/25 10:20:14;;;;;;;14.90;7.20;;;;;;;4.33;99.38;97760.10;106926;1272;24246;-81
2024/01/25 10:22:43;;;;;;;18.10;8.00;;;;;;;4.37;99.09;97763.37;106917;1278;23138;-82
2024/01/25 10:25:14;;;;;;;16.70;8.10;;;;;;;4.44;98.21;97758.75;106952;1277;22543;-82
2024/01/25 10:27:43;;;;;;;21.20;9.60;;;;;;;4.52;97.01;97762.46;106912;1278;22543;-82
2024/01/25 10:30:35;;;;;;;18.10;8.00;;;;;;;4.58;96.23;97769.20;106921;1278;22554;-88
2024/01/25 10:33:19;;;;;;;19.50;8.60;;;;;;;4.67;94.74;97765.77;106931;1278;24237;-86
2024/01/25 10:35:50;;;;;;;16.40;8.30;;;;;;;4.73;93.62;97758.04;106903;1273;22917;-86
2024/01/25 10:38:20;;;;;;;17.00;8.80;;;;;;;4.84;92.66;97775.71;106902;1266;23121;-86
2024/01/25 10:40:49;;;;;;;17.10;8.70;;;;;;;4.91;92.22;97766.66;106895;1270;22740;-87
2024/01/25 10:43:17;;;;;;;18.20;9.40;;;;;;;4.93;91.25;97774.34;106907;1275;22554;-86
2024/01/25 10:45:46;;;;;;;18.40;9.10;;;;;;;4.96;90.48;97785.94;106934;1278;22774;-85
2024/01/25 10:48:14;;;;;;;22.40;8.90;;;;;;;5.01;90.86;97786.48;106945;1278;22498;-85
2024/01/25 10:50:45;;;;;;;15.60;7.90;;;;;;;5.06;88.97;97786.17;106874;1282;22548;-86
2024/01/25 10:53:15;;;;;;;18.70;8.80;;;;;;;5.09;88.29;97783.81;108069;1278;22613;-84
2024/01/25 10:55:43;;;;;;;18.70;8.90;;;;;;;5.08;88.67;97778.48;108547;1276;22611;-85
2024/01/25 10:58:16;;;;;;;16.20;8.90;;;;;;;5.09;88.69;97786.38;107430;1281;22603;-85
2024/01/25 11:00:52;;;;;;;17.30;8.00;;;;;;;5.11;88.21;97807.86;107561;1266;22601;-82
2024/01/25 11:03:27;;;;;;;19.20;9.30;;;;;;;5.12;87.71;97776.09;107442;1281;22585;-84
2024/01/25 11:06:06;;;;;;;14.40;7.50;;;;;;;5.11;87.64;97785.59;107411;1278;25941;-85
2024/01/25 11:08:34;;;;;;;16.10;7.40;;;;;;;5.12;87.57;97807.23;107054;1282;22568;-82
2024/01/25 11:11:02;;;;;;;15.40;7.40;;;;;;;5.14;86.81;97792.37;106986;1276;25537;-88
2024/01/25 11:13:32;;;;;;;15.90;8.00;;;;;;;5.19;86.50;97788.64;106839;1270;22542;-86
2024/01/25 11:16:13;;;;;;;19.90;8.40;;;;;;;5.16;86.62;97780.84;107088;1281;25543;-83
2024/01/25 11:18:54;;;;;;;16.60;7.80;;;;;;;5.15;86.43;97803.23;107185;1270;22566;-83
2024/01/25 11:21:41;;;;;;;19.20;9.80;;;;;;;5.19;86.35;97788.05;107233;1278;24921;-84
2024/01/25 11:24:13;;;;;;;16.80;9.70;;;;;;;5.18;86.53;97808.88;107040;1281;22662;-87
2024/01/25 11:26:45;;;;;;;19.60;9.20;;;;;;;5.13;86.63;97789.10;107008;1270;25368;-86
2024/01/25 11:29:16;;;;;;;16.00;7.80;;;;;;;5.14;86.87;97811.88;106968;1279;22554;-83
2024/01/25 11:31:45;;;;;;;16.00;7.30;;;;;;;5.13;87.41;97803.64;106894;1281;22553;-83